Time;durP1;ratioP1;P1;durP2;ratioP2;P2;SDS_P1;SDS_P2;PMS_P1;PMS_P2;Temp;Humidity;BMP_temperature;BMP_pressure;BME280_temperature;BME280_humidity;BME280_pressure;Samples;Min_cycle;Max_cycle;Signal;HPM_P1;HPM_P2
2023/06/27 00:01:40;;;;;;;9.93;2.20;;;18.30;99.90;;;;;;7285531;19;20640;-84
2023/06/27 00:04:09;;;;;;;10.60;2.30;;;18.40;99.90;;;;;;7301193;19;20185;-83
2023/06/27 00:06:40;;;;;;;11.17;2.17;;;18.40;99.90;;;;;;7307023;19;20247;-80
2023/06/27 00:09:10;;;;;;;12.73;2.13;;;18.40;99.90;;;;;;7290802;19;20186;-83
2023/06/27 00:11:40;;;;;;;12.10;2.00;;;18.40;99.90;;;;;;7295771;19;20187;-83
2023/06/27 00:14:08;;;;;;;9.73;2.20;;;18.30;99.90;;;;;;7299494;19;20187;-83
2023/06/27 00:16:35;;;;;;;8.87;2.20;;;18.30;99.90;;;;;;7307551;19;20606;-83
2023/06/27 00:19:04;;;;;;;9.13;2.27;;;18.30;99.90;;;;;;7286735;19;20729;-83
2023/06/27 00:21:35;;;;;;;12.67;2.10;;;18.30;99.90;;;;;;7287663;19;20304;-84
2023/06/27 00:24:01;;;;;;;14.33;2.97;;;18.30;99.90;;;;;;7293531;19;20204;-83
2023/06/27 00:26:27;;;;;;;11.23;2.50;;;18.30;99.90;;;;;;7288926;19;20211;-83
2023/06/27 00:28:56;;;;;;;12.10;2.20;;;18.40;99.90;;;;;;7286314;19;20652;-83
2023/06/27 00:31:22;;;;;;;10.57;2.47;;;18.30;99.90;;;;;;7286039;19;20222;-83
2023/06/27 00:33:48;;;;;;;9.57;1.97;;;18.20;99.90;;;;;;7286738;19;20656;-84
2023/06/27 00:36:14;;;;;;;7.83;2.10;;;18.20;99.90;;;;;;7285233;19;20290;-83
2023/06/27 00:38:41;;;;;;;10.37;2.07;;;18.20;99.90;;;;;;7285488;19;20583;-83
2023/06/27 00:41:07;;;;;;;11.20;2.30;;;18.20;99.90;;;;;;7289328;19;20191;-83
2023/06/27 00:43:33;;;;;;;10.03;2.07;;;18.20;99.90;;;;;;7303267;19;20742;-83
2023/06/27 00:46:03;;;;;;;11.50;2.27;;;18.20;99.90;;;;;;7285136;19;20184;-83
2023/06/27 00:48:29;;;;;;;13.47;2.57;;;18.20;99.90;;;;;;7284546;19;20181;-83
2023/06/27 00:50:57;;;;;;;11.60;2.27;;;18.10;99.90;;;;;;7285192;19;20944;-83
2023/06/27 00:53:22;;;;;;;13.57;2.47;;;18.10;99.90;;;;;;7284635;19;20189;-83
2023/06/27 00:55:48;;;;;;;10.17;2.00;;;18.10;99.90;;;;;;7284691;19;20201;-83
2023/06/27 00:58:14;;;;;;;9.73;2.07;;;18.20;99.90;;;;;;7284589;19;20198;-83
2023/06/27 01:00:39;;;;;;;10.67;2.47;;;18.10;99.90;;;;;;7284176;19;20195;-83
2023/06/27 01:03:07;;;;;;;10.17;2.43;;;18.00;99.90;;;;;;7292152;19;20220;-82
2023/06/27 01:05:34;;;;;;;11.57;3.03;;;17.90;99.90;;;;;;7309058;19;20189;-83
2023/06/27 01:08:11;;;;;;;11.20;2.53;;;17.90;99.90;;;;;;7284362;19;20190;-84
2023/06/27 01:10:41;;;;;;;12.53;2.30;;;17.90;99.90;;;;;;7262028;19;20718;-83
2023/06/27 01:13:11;;;;;;;11.93;2.73;;;17.90;99.90;;;;;;7288796;19;20558;-84
2023/06/27 01:15:38;;;;;;;14.83;2.30;;;17.90;99.90;;;;;;7292272;19;20188;-83
2023/06/27 01:18:05;;;;;;;9.67;2.37;;;18.00;99.90;;;;;;7308260;19;20196;-85
2023/06/27 01:20:32;;;;;;;14.33;2.53;;;17.90;99.90;;;;;;7284626;19;20176;-84
2023/06/27 01:23:16;;;;;;;11.27;2.20;;;18.00;99.90;;;;;;7284225;19;20240;-84
2023/06/27 01:25:42;;;;;;;12.07;2.30;;;18.00;99.90;;;;;;7181740;19;2005030;-84
2023/06/27 01:28:13;;;;;;;13.93;2.60;;;18.00;99.90;;;;;;7288671;19;20502;-83
2023/06/27 01:30:40;;;;;;;11.83;2.33;;;18.00;99.90;;;;;;7287760;19;20203;-84
2023/06/27 01:33:19;;;;;;;15.70;2.73;;;17.90;99.90;;;;;;7299357;19;20596;-84
2023/06/27 01:36:04;;;;;;;11.27;2.40;;;17.80;99.90;;;;;;7283049;19;20227;-84
2023/06/27 01:38:43;;;;;;;11.57;2.30;;;17.70;99.90;;;;;;7284279;19;20191;-84
2023/06/27 01:41:14;;;;;;;14.43;2.37;;;17.70;99.90;;;;;;7261713;19;20252;-84
2023/06/27 01:43:41;;;;;;;14.17;2.67;;;17.70;99.90;;;;;;7283126;19;20189;-84
2023/06/27 01:46:08;;;;;;;15.37;2.43;;;17.60;99.90;;;;;;7287628;19;20185;-83
2023/06/27 01:48:36;;;;;;;12.13;2.80;;;17.70;99.90;;;;;;7305567;19;20185;-83
2023/06/27 01:51:05;;;;;;;12.17;2.53;;;17.60;99.90;;;;;;7284626;19;20181;-83
2023/06/27 01:53:31;;;;;;;14.37;2.50;;;17.60;99.90;;;;;;7284437;19;20189;-83
2023/06/27 01:55:57;;;;;;;12.03;2.40;;;17.50;99.90;;;;;;7290914;19;20211;-83
2023/06/27 01:58:23;;;;;;;18.33;2.70;;;17.50;99.90;;;;;;7289622;19;20185;-82
2023/06/27 02:00:49;;;;;;;10.40;2.10;;;17.50;99.90;;;;;;7289325;19;20181;-83
2023/06/27 02:03:15;;;;;;;11.37;2.53;;;17.60;99.90;;;;;;7289864;19;20185;-84
2023/06/27 02:05:41;;;;;;;9.73;2.13;;;17.50;99.90;;;;;;7290370;19;20192;-82
2023/06/27 02:08:07;;;;;;;15.37;2.77;;;17.50;99.90;;;;;;7294076;19;20186;-83
2023/06/27 02:10:32;;;;;;;15.30;3.13;;;17.50;99.90;;;;;;7311834;19;20177;-84
2023/06/27 02:13:01;;;;;;;11.07;2.07;;;17.50;99.90;;;;;;7289299;19;20644;-83
2023/06/27 02:15:26;;;;;;;11.07;2.50;;;17.50;99.90;;;;;;7289386;19;20183;-84
2023/06/27 02:17:52;;;;;;;13.23;2.73;;;17.40;99.90;;;;;;7289145;19;20217;-83
2023/06/27 02:20:20;;;;;;;11.17;2.60;;;17.50;99.90;;;;;;7287755;19;20181;-84
2023/06/27 02:22:46;;;;;;;13.37;2.90;;;17.50;99.90;;;;;;7288847;19;20196;-83
2023/06/27 02:25:12;;;;;;;13.77;3.07;;;17.50;99.90;;;;;;7288817;19;20189;-83
2023/06/27 02:27:37;;;;;;;13.87;2.40;;;17.50;99.90;;;;;;7288379;19;20201;-82
2023/06/27 02:30:03;;;;;;;13.33;3.30;;;17.50;99.90;;;;;;7311336;19;20289;-83
2023/06/27 02:32:29;;;;;;;14.43;2.77;;;17.50;99.90;;;;;;7290655;19;20373;-83
2023/06/27 02:34:56;;;;;;;17.27;2.87;;;17.50;99.90;;;;;;7289143;19;20194;-83
2023/06/27 02:37:21;;;;;;;10.80;2.37;;;17.50;99.90;;;;;;7290237;19;20189;-83
2023/06/27 02:39:47;;;;;;;11.00;3.00;;;17.50;99.90;;;;;;7286404;19;20616;-83
2023/06/27 02:42:13;;;;;;;14.47;2.90;;;17.50;99.90;;;;;;7288180;19;20672;-83
2023/06/27 02:44:38;;;;;;;11.43;2.87;;;17.60;99.90;;;;;;7288970;19;20526;-82
2023/06/27 02:47:04;;;;;;;15.53;2.90;;;17.50;99.90;;;;;;7311273;19;20193;-83
2023/06/27 02:49:30;;;;;;;18.97;3.47;;;17.50;99.90;;;;;;7288037;19;20886;-83
2023/06/27 02:51:55;;;;;;;13.60;2.80;;;17.60;99.90;;;;;;7288526;19;20201;-83
2023/06/27 02:54:21;;;;;;;14.97;2.83;;;17.60;99.90;;;;;;7287182;19;20196;-83
2023/06/27 02:56:47;;;;;;;12.70;2.80;;;17.50;99.90;;;;;;7287676;19;20190;-85
2023/06/27 02:59:12;;;;;;;16.83;2.80;;;17.60;99.90;;;;;;7288332;19;20212;-84
2023/06/27 03:01:38;;;;;;;16.70;3.20;;;17.60;99.90;;;;;;7286306;19;20579;-83
2023/06/27 03:04:04;;;;;;;17.23;3.53;;;17.60;99.90;;;;;;7309581;19;20600;-84
2023/06/27 03:06:33;;;;;;;15.60;2.97;;;17.60;99.90;;;;;;7285824;19;20309;-84
2023/06/27 03:09:03;;;;;;;15.17;3.53;;;17.60;99.90;;;;;;7288871;19;20643;-84
2023/06/27 03:11:29;;;;;;;15.57;3.50;;;17.50;99.90;;;;;;7287534;19;20189;-84
2023/06/27 03:13:55;;;;;;;16.63;3.47;;;17.50;99.90;;;;;;7287570;19;20198;-84
2023/06/27 03:16:21;;;;;;;13.20;3.00;;;17.40;99.90;;;;;;7287283;19;20191;-85
2023/06/27 03:18:47;;;;;;;13.60;3.57;;;17.30;99.90;;;;;;7286964;19;20189;-84
2023/06/27 03:21:13;;;;;;;15.67;3.17;;;17.30;99.90;;;;;;7287156;19;20177;-84
2023/06/27 03:23:39;;;;;;;13.57;3.03;;;17.30;99.90;;;;;;7286602;19;20552;-84
2023/06/27 03:26:04;;;;;;;18.53;3.60;;;17.40;99.90;;;;;;7309511;19;20195;-84
2023/06/27 03:28:31;;;;;;;16.13;3.57;;;17.40;99.90;;;;;;7286613;19;20189;-84
2023/06/27 03:30:56;;;;;;;16.00;3.53;;;17.30;99.90;;;;;;7287178;19;20228;-84
2023/06/27 03:33:23;;;;;;;17.13;3.40;;;17.30;99.90;;;;;;7286723;19;20648;-84
2023/06/27 03:35:52;;;;;;;14.17;3.27;;;17.30;99.90;;;;;;7286809;19;20256;-83
2023/06/27 03:38:18;;;;;;;21.00;3.90;;;17.30;99.90;;;;;;7286261;19;20222;-85
2023/06/27 03:40:44;;;;;;;14.63;3.97;;;17.20;99.90;;;;;;7286097;19;20185;-84
2023/06/27 03:43:12;;;;;;;18.63;3.77;;;17.20;99.90;;;;;;7287031;19;20185;-84
2023/06/27 03:45:40;;;;;;;16.33;3.73;;;17.20;99.90;;;;;;7286097;19;20575;-83
2023/06/27 03:48:07;;;;;;;18.57;4.00;;;17.20;99.90;;;;;;7297900;19;20202;-83
2023/06/27 03:50:33;;;;;;;19.77;4.27;;;17.20;99.90;;;;;;7309586;19;20197;-84
2023/06/27 03:53:01;;;;;;;16.03;4.43;;;17.10;99.90;;;;;;7287160;19;20208;-84
2023/06/27 03:55:27;;;;;;;16.00;4.13;;;17.10;99.90;;;;;;7286658;19;20212;-84
2023/06/27 03:57:53;;;;;;;17.13;4.03;;;17.10;99.90;;;;;;7286626;19;20189;-83
2023/06/27 04:00:19;;;;;;;16.30;4.10;;;17.10;99.90;;;;;;7292296;19;20196;-84
2023/06/27 04:02:44;;;;;;;15.03;4.17;;;17.10;99.90;;;;;;7294728;19;20570;-84
2023/06/27 04:05:11;;;;;;;19.97;4.07;;;17.00;99.90;;;;;;7296029;19;20189;-85
2023/06/27 04:07:37;;;;;;;16.40;4.73;;;17.00;99.90;;;;;;7299036;19;20223;-84
2023/06/27 04:10:06;;;;;;;22.43;4.30;;;17.00;99.90;;;;;;7301247;19;20181;-82
2023/06/27 04:12:32;;;;;;;17.50;4.27;;;17.10;99.90;;;;;;7301729;19;20182;-84
2023/06/27 04:14:58;;;;;;;18.57;4.13;;;17.20;99.90;;;;;;7286223;19;20198;-84
2023/06/27 04:17:23;;;;;;;15.13;4.57;;;17.30;99.90;;;;;;7284194;19;20677;-84
2023/06/27 04:19:49;;;;;;;18.67;4.10;;;17.40;99.90;;;;;;7285901;19;20208;-84
2023/06/27 04:22:15;;;;;;;16.40;4.07;;;17.50;99.90;;;;;;7284655;19;20740;-84
2023/06/27 04:24:40;;;;;;;16.13;4.20;;;17.50;99.90;;;;;;7284878;19;20942;-84
2023/06/27 04:27:09;;;;;;;17.97;4.57;;;17.40;99.90;;;;;;7300123;19;20172;-83
2023/06/27 04:29:36;;;;;;;16.80;4.27;;;17.50;99.90;;;;;;7307617;19;20742;-84
2023/06/27 04:32:02;;;;;;;15.97;4.50;;;17.60;99.90;;;;;;7285916;19;20185;-85
2023/06/27 04:34:27;;;;;;;19.90;4.00;;;17.90;99.90;;;;;;7287389;19;20192;-84
2023/06/27 04:36:53;;;;;;;16.93;3.93;;;18.40;99.90;;;;;;7285408;19;20268;-84
2023/06/27 04:39:19;;;;;;;16.50;3.97;;;19.20;99.90;;;;;;7284569;19;20211;-84
2023/06/27 04:41:44;;;;;;;14.07;3.73;;;19.90;99.90;;;;;;7284587;19;20188;-83
2023/06/27 04:44:10;;;;;;;16.40;3.83;;;20.40;99.90;;;;;;7286063;19;20182;-84
2023/06/27 04:46:36;;;;;;;16.67;3.97;;;20.80;99.90;;;;;;7303212;19;20554;-82
2023/06/27 04:49:02;;;;;;;19.57;3.70;;;20.80;99.90;;;;;;7298092;19;20717;-83
2023/06/27 04:51:29;;;;;;;16.17;3.60;;;21.00;99.90;;;;;;7284022;19;20233;-85
2023/06/27 04:53:55;;;;;;;11.17;3.20;;;21.40;99.90;;;;;;7285593;19;20231;-86
2023/06/27 04:56:22;;;;;;;13.03;3.50;;;21.90;99.90;;;;;;7286602;19;20510;-86
2023/06/27 04:58:47;;;;;;;15.47;4.27;;;22.10;99.90;;;;;;7284256;19;20192;-86
2023/06/27 05:01:13;;;;;;;16.77;3.63;;;22.40;99.90;;;;;;7284633;19;20219;-85
2023/06/27 05:03:39;;;;;;;18.67;4.20;;;22.70;99.90;;;;;;7283358;19;20665;-84
2023/06/27 05:06:05;;;;;;;16.30;3.87;;;22.60;99.90;;;;;;7306392;19;20188;-88
2023/06/27 05:08:32;;;;;;;18.27;3.63;;;23.20;99.90;;;;;;7288863;19;20192;-88
2023/06/27 05:10:58;;;;;;;17.80;4.30;;;24.00;99.90;;;;;;7285805;19;20193;-87
2023/06/27 05:13:24;;;;;;;19.57;3.90;;;24.60;99.90;;;;;;7286573;19;20189;-87
2023/06/27 05:15:49;;;;;;;16.40;3.80;;;25.20;99.90;;;;;;7286526;19;20193;-87
2023/06/27 05:18:15;;;;;;;19.93;3.97;;;25.10;99.90;;;;;;7286128;19;20533;-87
2023/06/27 05:20:42;;;;;;;18.90;3.60;;;25.60;99.90;;;;;;7285781;19;20193;-88
2023/06/27 05:23:07;;;;;;;16.75;3.30;;;26.50;99.90;;;;;;7289462;19;20260;-88
2023/06/27 05:25:33;;;;;;;14.60;3.17;;;26.90;99.90;;;;;;7306388;19;20201;-87
2023/06/27 05:28:00;;;;;;;18.77;3.40;;;27.50;99.90;;;;;;7285202;19;20207;-86
2023/06/27 05:30:27;;;;;;;17.75;3.85;;;27.70;99.90;;;;;;7284146;19;20199;-86
2023/06/27 05:32:54;;;;;;;13.50;3.80;;;28.10;99.90;;;;;;7283496;19;20200;-83
2023/06/27 05:35:20;;;;;;;19.85;4.07;;;28.20;99.90;;;;;;7283091;19;20185;-83
2023/06/27 05:37:46;;;;;;;17.77;3.60;;;28.30;99.90;;;;;;7283804;19;20236;-83
2023/06/27 05:40:12;;;;;;;13.75;3.67;;;28.70;99.90;;;;;;7280714;19;20582;-83
2023/06/27 05:42:38;;;;;;;16.38;4.07;;;28.90;99.90;;;;;;7285313;19;20214;-82
2023/06/27 05:45:05;;;;;;;17.77;3.42;;;29.20;99.90;;;;;;7305945;19;20205;-81
2023/06/27 05:47:31;;;;;;;19.23;4.03;;;29.40;99.90;;;;;;7281791;19;20199;-81
2023/06/27 05:49:56;;;;;;;15.07;3.72;;;29.40;99.90;;;;;;7281920;19;20273;-81
2023/06/27 05:52:22;;;;;;;22.77;3.58;;;29.00;99.90;;;;;;7281669;19;20192;-81
2023/06/27 05:54:49;;;;;;;19.45;3.95;;;29.50;99.90;;;;;;7282676;19;20210;-81
2023/06/27 05:57:15;;;;;;;16.17;3.40;;;30.00;99.90;;;;;;7285128;19;20650;-81
2023/06/27 05:59:41;;;;;;;17.42;3.33;;;30.00;99.90;;;;;;7283391;19;20185;-81
2023/06/27 06:02:06;;;;;;;17.35;3.88;;;30.30;99.90;;;;;;7299726;19;20682;-81
2023/06/27 06:04:32;;;;;;;14.05;3.50;;;31.00;99.90;;;;;;7295293;19;20188;-82
2023/06/27 06:06:59;;;;;;;13.65;3.55;;;31.40;99.00;;;;;;7284692;19;20196;-82
2023/06/27 06:09:25;;;;;;;14.38;3.60;;;31.20;98.30;;;;;;7281714;19;20593;-81
2023/06/27 06:11:52;;;;;;;13.95;3.33;;;31.30;98.10;;;;;;7282430;19;20648;-81
2023/06/27 06:14:17;;;;;;;15.95;3.53;;;31.10;97.10;;;;;;7282243;19;20668;-81
2023/06/27 06:16:43;;;;;;;18.80;3.70;;;31.30;97.70;;;;;;7283161;19;20188;-81
2023/06/27 06:19:11;;;;;;;16.50;3.42;;;31.10;97.10;;;;;;7279519;19;20199;-81
2023/06/27 06:21:37;;;;;;;16.00;3.55;;;30.20;98.10;;;;;;7295373;19;20192;-80
2023/06/27 06:24:03;;;;;;;14.05;3.75;;;29.40;98.90;;;;;;7300347;19;20181;-81
2023/06/27 06:26:29;;;;;;;16.58;3.20;;;29.00;99.90;;;;;;7283371;19;20303;-81
2023/06/27 06:28:55;;;;;;;14.32;3.20;;;28.30;99.90;;;;;;7282984;19;20289;-81
2023/06/27 06:31:22;;;;;;;16.90;3.50;;;27.90;99.90;;;;;;7281955;19;20553;-81
2023/06/27 06:33:48;;;;;;;16.08;3.58;;;27.80;99.90;;;;;;7282842;19;20608;-81
2023/06/27 06:36:14;;;;;;;12.07;3.47;;;28.00;99.90;;;;;;7282555;19;20193;-81
2023/06/27 06:38:40;;;;;;;18.13;3.75;;;28.40;99.90;;;;;;7278698;19;20676;-81
2023/06/27 06:41:06;;;;;;;17.30;3.72;;;28.40;99.90;;;;;;7306480;19;20197;-81
2023/06/27 06:43:32;;;;;;;12.43;2.95;;;28.80;99.90;;;;;;7289222;19;20185;-81
2023/06/27 06:45:58;;;;;;;12.80;3.40;;;29.10;99.90;;;;;;7289144;19;20275;-81
2023/06/27 06:48:24;;;;;;;15.65;3.65;;;28.80;99.90;;;;;;7288148;19;20643;-80
2023/06/27 06:50:51;;;;;;;20.40;3.90;;;28.80;99.90;;;;;;7290329;19;20193;-82
2023/06/27 06:53:18;;;;;;;15.98;3.63;;;29.10;99.90;;;;;;7288268;19;20537;-81
2023/06/27 06:55:44;;;;;;;17.95;3.88;;;29.40;99.90;;;;;;7288977;19;20189;-81
2023/06/27 06:58:09;;;;;;;12.88;3.28;;;29.00;99.90;;;;;;7286714;19;20189;-81
2023/06/27 07:00:35;;;;;;;15.15;3.33;;;28.90;99.90;;;;;;7308617;19;20256;-81
2023/06/27 07:03:03;;;;;;;13.75;3.10;;;28.70;99.90;;;;;;7287310;19;20189;-81
2023/06/27 07:05:29;;;;;;;20.55;3.30;;;28.70;99.90;;;;;;7288517;19;20568;-80
2023/06/27 07:07:55;;;;;;;17.02;3.40;;;28.80;99.90;;;;;;7287943;19;20185;-81
2023/06/27 07:10:20;;;;;;;13.95;3.22;;;29.30;99.90;;;;;;7291398;19;20189;-80
2023/06/27 07:12:46;;;;;;;16.95;3.40;;;29.30;99.90;;;;;;7289891;19;20228;-81
2023/06/27 07:15:14;;;;;;;13.93;2.88;;;29.80;99.90;;;;;;7291588;19;20240;-81
2023/06/27 07:17:39;;;;;;;17.08;3.22;;;30.30;99.90;;;;;;7289120;19;20265;-81
2023/06/27 07:20:08;;;;;;;14.02;3.25;;;31.00;99.40;;;;;;7307791;19;20201;-81
2023/06/27 07:22:34;;;;;;;13.52;2.70;;;31.20;99.10;;;;;;7285376;19;20576;-81
2023/06/27 07:24:59;;;;;;;13.90;3.20;;;30.40;99.20;;;;;;7290419;19;20213;-81
2023/06/27 07:27:25;;;;;;;14.82;3.10;;;30.40;99.50;;;;;;7287490;19;20644;-82
2023/06/27 07:29:51;;;;;;;15.60;2.90;;;30.90;99.10;;;;;;7285644;19;20202;-82
2023/06/27 07:32:16;;;;;;;13.80;3.30;;;32.20;96.30;;;;;;7285864;19;20189;-82
2023/06/27 07:34:42;;;;;;;14.43;2.70;;;32.10;95.40;;;;;;7285266;19;20199;-82
2023/06/27 07:37:08;;;;;;;14.65;3.50;;;32.80;94.70;;;;;;7292079;19;20181;-82
2023/06/27 07:39:35;;;;;;;12.68;3.25;;;32.90;93.30;;;;;;7309825;19;20289;-82
2023/06/27 07:42:01;;;;;;;15.20;3.05;;;32.70;93.10;;;;;;7287201;19;21034;-82
2023/06/27 07:44:26;;;;;;;13.50;3.05;;;32.40;92.80;;;;;;7287222;19;20245;-83
2023/06/27 07:46:52;;;;;;;18.33;2.97;;;31.90;93.30;;;;;;7287232;19;20184;-81
2023/06/27 07:49:18;;;;;;;12.90;2.75;;;32.20;93.00;;;;;;7286237;19;20256;-80
2023/06/27 07:51:45;;;;;;;15.35;3.17;;;31.70;93.00;;;;;;7284803;19;20201;-81
2023/06/27 07:54:11;;;;;;;13.30;2.60;;;32.20;92.50;;;;;;7286211;19;20272;-82
2023/06/27 07:56:37;;;;;;;10.95;2.30;;;33.30;92.10;;;;;;7301748;19;20588;-81
2023/06/27 07:59:04;;;;;;;13.02;2.70;;;33.40;91.60;;;;;;7300766;19;20587;-82
2023/06/27 08:01:30;;;;;;;13.13;2.90;;;33.60;89.40;;;;;;7286520;19;20667;-82
2023/06/27 08:03:56;;;;;;;11.70;2.65;;;33.50;90.20;;;;;;7285262;19;20191;-82
2023/06/27 08:06:21;;;;;;;10.38;2.58;;;32.80;89.20;;;;;;7285860;19;20189;-82
2023/06/27 08:08:47;;;;;;;14.40;2.35;;;31.50;90.80;;;;;;7285140;19;20195;-82
2023/06/27 08:11:13;;;;;;;12.77;2.50;;;31.90;92.20;;;;;;7285522;19;20286;-82
2023/06/27 08:13:41;;;;;;;14.75;2.63;;;32.80;92.00;;;;;;7284489;19;20220;-82
2023/06/27 08:16:10;;;;;;;15.20;2.80;;;33.00;90.20;;;;;;7305802;19;20248;-81
2023/06/27 08:18:36;;;;;;;9.48;2.50;;;32.80;90.90;;;;;;7306353;19;20196;-82
2023/06/27 08:21:04;;;;;;;11.20;2.65;;;33.60;87.70;;;;;;7285231;19;20184;-81
2023/06/27 08:23:30;;;;;;;10.57;2.20;;;34.70;87.70;;;;;;7285753;19;20188;-81
2023/06/27 08:25:55;;;;;;;13.00;2.65;;;35.20;84.60;;;;;;7285860;19;20200;-82
2023/06/27 08:28:21;;;;;;;10.75;2.60;;;36.00;80.70;;;;;;7285849;19;20189;-82
2023/06/27 08:30:47;;;;;;;15.60;2.47;;;36.20;80.40;;;;;;7286054;19;20200;-82
2023/06/27 08:33:13;;;;;;;9.52;2.20;;;37.00;76.60;;;;;;7285483;19;20688;-81
2023/06/27 08:35:39;;;;;;;11.02;2.40;;;37.60;73.50;;;;;;7286044;19;20193;-80
2023/06/27 08:38:05;;;;;;;10.48;2.50;;;38.50;71.10;;;;;;7308254;19;20188;-81
2023/06/27 08:40:35;;;;;;;9.48;2.47;;;38.80;69.00;;;;;;7284844;19;20196;-80
2023/06/27 08:43:02;;;;;;;10.23;2.30;;;39.00;65.90;;;;;;7286708;19;20222;-81
2023/06/27 08:45:27;;;;;;;11.32;2.08;;;39.20;65.00;;;;;;7285140;19;20186;-81
2023/06/27 08:47:54;;;;;;;9.00;2.08;;;38.30;62.60;;;;;;7285110;19;20670;-81
2023/06/27 08:50:21;;;;;;;10.95;2.13;;;37.70;60.80;;;;;;7285300;19;20215;-81
2023/06/27 08:52:58;;;;;;;10.05;1.98;;;38.20;62.30;;;;;;7284808;19;20633;-83
2023/06/27 08:55:51;;;;;;;9.82;1.77;;;38.80;63.40;;;;;;7284566;19;20785;-82
2023/06/27 08:58:20;;;;;;;11.68;2.22;;;39.40;59.80;;;;;;7182876;19;2004710;-82
2023/06/27 09:00:47;;;;;;;8.68;2.45;;;40.40;58.10;;;;;;7284654;19;20200;-82
2023/06/27 09:03:13;;;;;;;7.78;2.10;;;41.00;58.50;;;;;;7280914;19;20180;-82
2023/06/27 09:05:41;;;;;;;10.18;1.90;;;40.80;56.90;;;;;;7285107;19;20192;-81
2023/06/27 09:08:07;;;;;;;8.15;1.95;;;40.20;57.00;;;;;;7305676;19;20184;-81
2023/06/27 09:10:33;;;;;;;8.10;1.80;;;39.90;57.30;;;;;;7298617;19;20668;-82
2023/06/27 09:13:01;;;;;;;7.47;2.13;;;39.70;54.30;;;;;;7284124;19;20268;-82
2023/06/27 09:15:27;;;;;;;8.35;1.90;;;39.00;56.10;;;;;;7285568;19;20205;-82
2023/06/27 09:17:52;;;;;;;9.70;2.17;;;38.20;55.80;;;;;;7284728;19;20248;-81
2023/06/27 09:20:19;;;;;;;8.05;1.60;;;37.90;56.00;;;;;;7284996;19;20594;-81
2023/06/27 09:22:45;;;;;;;7.55;1.75;;;37.10;56.30;;;;;;7284539;19;20232;-81
2023/06/27 09:25:20;;;;;;;8.48;1.88;;;36.80;57.10;;;;;;7284369;19;20244;-81
2023/06/27 09:27:47;;;;;;;8.85;2.00;;;37.80;57.00;;;;;;7285398;19;20200;-81
2023/06/27 09:30:13;;;;;;;6.05;1.50;;;37.50;56.70;;;;;;7283306;19;20185;-81
2023/06/27 09:33:01;;;;;;;8.50;1.52;;;37.40;54.70;;;;;;7283270;19;20188;-82
2023/06/27 09:35:28;;;;;;;7.07;2.10;;;37.80;54.80;;;;;;7283255;19;20212;-83
2023/06/27 09:38:08;;;;;;;8.60;2.05;;;37.90;55.30;;;;;;7283922;19;20197;-83
2023/06/27 09:40:35;;;;;;;7.03;1.70;;;38.40;56.40;;;;;;7284397;19;20260;-83
2023/06/27 09:43:01;;;;;;;4.25;1.27;;;38.80;52.90;;;;;;7284245;19;20196;-83
2023/06/27 09:45:30;;;;;;;5.32;1.40;;;39.70;52.00;;;;;;7285523;19;20202;-83
2023/06/27 09:47:57;;;;;;;7.88;1.45;;;40.00;51.60;;;;;;7285086;19;20199;-83
2023/06/27 09:50:31;;;;;;;6.15;1.67;;;41.00;50.60;;;;;;7284642;19;20189;-83
2023/06/27 09:52:59;;;;;;;3.85;1.02;;;39.70;49.30;;;;;;7283010;19;20201;-83
2023/06/27 09:55:25;;;;;;;3.88;1.00;;;39.90;51.20;;;;;;7283282;19;20189;-82
2023/06/27 09:57:52;;;;;;;9.85;1.60;;;38.60;49.00;;;;;;7284209;19;20185;-82
2023/06/27 10:00:22;;;;;;;6.97;1.50;;;36.80;51.40;;;;;;7284618;19;20197;-82
2023/06/27 10:02:51;;;;;;;6.78;1.35;;;35.00;52.70;;;;;;7282000;19;20197;-82
2023/06/27 10:05:19;;;;;;;5.57;1.20;;;33.70;55.60;;;;;;7283587;19;20675;-81
2023/06/27 10:07:47;;;;;;;5.75;1.30;;;33.40;56.70;;;;;;7284310;19;20286;-82
2023/06/27 10:10:14;;;;;;;7.68;1.40;;;32.90;56.30;;;;;;7282473;19;20222;-82
2023/06/27 10:12:42;;;;;;;6.07;1.30;;;31.80;58.70;;;;;;7283216;19;20660;-82
2023/06/27 10:15:09;;;;;;;5.25;1.42;;;32.10;59.80;;;;;;7302734;19;20228;-82
2023/06/27 10:17:35;;;;;;;5.88;1.63;;;32.30;58.80;;;;;;7311854;19;20184;-82
2023/06/27 10:20:03;;;;;;;8.35;1.52;;;33.40;59.50;;;;;;7289369;19;20183;-83
2023/06/27 10:22:34;;;;;;;10.45;1.45;;;35.00;56.10;;;;;;7289306;19;20260;-82
2023/06/27 10:25:03;;;;;;;8.20;1.60;;;33.80;57.10;;;;;;7289052;19;20270;-82
2023/06/27 10:27:36;;;;;;;4.55;1.00;;;32.40;57.50;;;;;;7288816;19;20249;-81
2023/06/27 10:30:05;;;;;;;7.00;1.42;;;31.00;58.10;;;;;;7289094;19;20185;-82
2023/06/27 10:32:44;;;;;;;4.88;1.33;;;30.80;60.40;;;;;;7288727;19;20640;-82
2023/06/27 10:35:26;;;;;;;7.95;1.60;;;30.80;61.50;;;;;;7266026;19;20184;-82
2023/06/27 10:38:14;;;;;;;7.80;1.55;;;30.50;61.40;;;;;;7288407;19;20591;-82
2023/06/27 10:41:06;;;;;;;6.47;1.67;;;29.70;63.50;;;;;;7264388;19;20216;-81
2023/06/27 10:43:47;;;;;;;11.13;1.40;;;29.00;63.90;;;;;;7287660;19;20196;-81
2023/06/27 10:46:23;;;;;;;7.75;1.50;;;28.90;66.70;;;;;;7185367;19;2004725;-81
2023/06/27 10:48:53;;;;;;;7.18;1.55;;;29.30;66.40;;;;;;7289653;19;20217;-81
2023/06/27 10:51:21;;;;;;;6.28;1.90;;;29.40;65.80;;;;;;7287997;19;20188;-81
2023/06/27 10:54:08;;;;;;;6.07;1.30;;;29.20;63.60;;;;;;7289444;19;20205;-81
2023/06/27 10:56:35;;;;;;;6.65;1.23;;;28.90;66.10;;;;;;7288897;19;20271;-81
2023/06/27 10:59:03;;;;;;;10.25;1.85;;;29.00;66.50;;;;;;7288102;19;20195;-81
2023/06/27 11:01:36;;;;;;;7.28;1.70;;;29.30;65.10;;;;;;7288696;19;20195;-81
2023/06/27 11:04:19;;;;;;;6.18;1.20;;;29.60;62.70;;;;;;7289432;19;20208;-81
2023/06/27 11:06:45;;;;;;;5.25;0.95;;;29.60;63.80;;;;;;7186603;19;2004433;-81
2023/06/27 11:09:16;;;;;;;6.07;1.30;;;29.20;64.70;;;;;;7288717;19;20673;-81
2023/06/27 11:11:53;;;;;;;7.60;1.45;;;28.10;66.50;;;;;;7288401;19;20200;-81
2023/06/27 11:14:41;;;;;;;7.50;1.77;;;27.80;68.20;;;;;;7288572;19;20200;-81
2023/06/27 11:17:07;;;;;;;9.25;1.80;;;27.50;68.70;;;;;;7289471;19;20656;-82
2023/06/27 11:19:34;;;;;;;7.57;1.42;;;27.20;70.40;;;;;;7288316;19;21803;-81
2023/06/27 11:22:01;;;;;;;7.97;1.50;;;27.20;69.10;;;;;;7288758;19;20212;-83
2023/06/27 11:24:29;;;;;;;9.32;1.70;;;26.80;71.40;;;;;;7286524;19;20224;-82
2023/06/27 11:26:55;;;;;;;7.05;1.75;;;27.00;71.50;;;;;;7285912;19;20189;-81
2023/06/27 11:29:21;;;;;;;7.88;1.40;;;27.20;72.90;;;;;;7286952;19;20663;-81
2023/06/27 11:31:48;;;;;;;5.80;1.70;;;27.40;73.30;;;;;;7286179;19;20208;-81
2023/06/27 11:34:16;;;;;;;7.38;1.65;;;27.40;72.40;;;;;;7287114;19;20349;-81
2023/06/27 11:36:43;;;;;;;7.50;1.83;;;27.40;75.10;;;;;;7287548;19;20193;-82
2023/06/27 11:39:18;;;;;;;9.68;2.00;;;27.20;72.90;;;;;;7291928;19;20197;-80
2023/06/27 11:41:45;;;;;;;9.10;1.48;;;27.10;76.20;;;;;;7287299;19;20188;-81
2023/06/27 11:44:12;;;;;;;9.15;1.83;;;27.20;74.60;;;;;;7286600;19;20260;-81
2023/06/27 11:46:51;;;;;;;5.60;1.50;;;27.10;73.60;;;;;;7303637;19;20280;-81
2023/06/27 11:49:20;;;;;;;8.20;1.52;;;26.60;75.00;;;;;;7286696;19;20569;-81
2023/06/27 11:51:46;;;;;;;7.43;1.55;;;27.10;76.20;;;;;;7286954;19;20188;-81
2023/06/27 11:54:16;;;;;;;16.70;1.98;;;27.60;76.60;;;;;;7284740;19;20189;-81
2023/06/27 11:56:42;;;;;;;7.38;1.65;;;28.00;73.20;;;;;;7285505;19;20184;-81
2023/06/27 11:59:08;;;;;;;11.32;1.73;;;28.40;74.60;;;;;;7304184;19;20188;-81
2023/06/27 12:01:44;;;;;;;8.35;1.80;;;28.60;71.40;;;;;;7303164;19;20565;-81
2023/06/27 12:04:14;;;;;;;7.43;2.33;;;28.80;75.00;;;;;;7263990;19;20221;-81
2023/06/27 12:06:40;;;;;;;8.85;1.80;;;28.90;72.30;;;;;;7285309;19;20204;-80
2023/06/27 12:09:22;;;;;;;7.30;1.48;;;28.90;72.10;;;;;;7307752;19;20272;-81
2023/06/27 12:11:59;;;;;;;7.38;1.50;;;29.10;70.80;;;;;;7183766;19;2004580;-80
2023/06/27 12:14:26;;;;;;;10.40;2.05;;;29.10;71.50;;;;;;7286390;19;20682;-82
2023/06/27 12:16:55;;;;;;;5.78;1.60;;;29.10;70.90;;;;;;7285758;19;20248;-81
2023/06/27 12:19:22;;;;;;;9.82;1.70;;;29.10;71.30;;;;;;7284259;19;20189;-81
2023/06/27 12:21:49;;;;;;;9.52;2.28;;;29.10;70.90;;;;;;7285289;19;20296;-81
2023/06/27 12:24:15;;;;;;;8.02;1.77;;;29.00;70.30;;;;;;7285359;19;20196;-82
2023/06/27 12:26:41;;;;;;;7.72;1.80;;;29.00;71.50;;;;;;7284661;19;20189;-81
2023/06/27 12:29:08;;;;;;;7.18;1.48;;;29.40;71.90;;;;;;7306802;19;20198;-80
2023/06/27 12:31:35;;;;;;;9.45;1.83;;;29.40;69.70;;;;;;7285926;19;20188;-81
2023/06/27 12:34:01;;;;;;;10.10;1.70;;;29.80;70.50;;;;;;7285921;19;20223;-81
2023/06/27 12:36:27;;;;;;;8.52;1.90;;;29.90;68.50;;;;;;7284856;19;20268;-81
2023/06/27 12:38:55;;;;;;;8.27;1.95;;;30.50;71.40;;;;;;7285398;19;20639;-81
2023/06/27 12:41:22;;;;;;;8.25;1.88;;;30.30;66.20;;;;;;7283471;19;20208;-82
2023/06/27 12:43:48;;;;;;;8.23;2.00;;;29.30;67.40;;;;;;7283715;19;20205;-81